sensor_id;sensor_type;location;lat;lon;timestamp;P1;durP1;ratioP1;P2;durP2;ratioP2
9912;SDS011;41380;52.548;13.344;2022-08-07T00:00:56;4.93;;;3.03;;
9912;SDS011;41380;52.548;13.344;2022-08-07T00:03:22;3.97;;;3.13;;
9912;SDS011;41380;52.548;13.344;2022-08-07T00:05:50;5.43;;;3.80;;
9912;SDS011;41380;52.548;13.344;2022-08-07T00:08:18;4.10;;;3.60;;
9912;SDS011;41380;52.548;13.344;2022-08-07T00:10:46;4.22;;;3.35;;
9912;SDS011;41380;52.548;13.344;2022-08-07T00:13:13;4.18;;;3.13;;
9912;SDS011;41380;52.548;13.344;2022-08-07T00:15:41;5.68;;;3.55;;
9912;SDS011;41380;52.548;13.344;2022-08-07T00:18:09;5.70;;;3.70;;
9912;SDS011;41380;52.548;13.344;2022-08-07T00:20:37;4.55;;;3.20;;
9912;SDS011;41380;52.548;13.344;2022-08-07T00:23:04;4.38;;;3.17;;
9912;SDS011;41380;52.548;13.344;2022-08-07T00:25:31;4.80;;;3.78;;
9912;SDS011;41380;52.548;13.344;2022-08-07T00:27:58;5.25;;;3.20;;
9912;SDS011;41380;52.548;13.344;2022-08-07T00:30:25;3.63;;;3.30;;
9912;SDS011;41380;52.548;13.344;2022-08-07T00:32:53;4.78;;;3.75;;
9912;SDS011;41380;52.548;13.344;2022-08-07T00:35:22;4.57;;;3.42;;
9912;SDS011;41380;52.548;13.344;2022-08-07T00:37:49;5.25;;;4.05;;
9912;SDS011;41380;52.548;13.344;2022-08-07T00:40:16;4.43;;;3.70;;
9912;SDS011;41380;52.548;13.344;2022-08-07T00:42:43;4.93;;;3.53;;
9912;SDS011;41380;52.548;13.344;2022-08-07T00:45:10;4.57;;;3.65;;
9912;SDS011;41380;52.548;13.344;2022-08-07T00:47:37;4.15;;;3.60;;
9912;SDS011;41380;52.548;13.344;2022-08-07T00:50:05;6.85;;;3.47;;
9912;SDS011;41380;52.548;13.344;2022-08-07T00:52:34;3.97;;;3.42;;
9912;SDS011;41380;52.548;13.344;2022-08-07T00:55:01;4.18;;;3.30;;
9912;SDS011;41380;52.548;13.344;2022-08-07T00:57:28;4.68;;;3.30;;
9912;SDS011;41380;52.548;13.344;2022-08-07T00:59:55;4.22;;;3.22;;
9912;SDS011;41380;52.548;13.344;2022-08-07T01:02:22;3.78;;;3.35;;
9912;SDS011;41380;52.548;13.344;2022-08-07T01:04:49;3.30;;;3.00;;
9912;SDS011;41380;52.548;13.344;2022-08-07T01:07:17;5.30;;;3.30;;
9912;SDS011;41380;52.548;13.344;2022-08-07T01:09:47;3.30;;;2.95;;
9912;SDS011;41380;52.548;13.344;2022-08-07T01:12:14;4.65;;;2.95;;
9912;SDS011;41380;52.548;13.344;2022-08-07T01:14:42;6.40;;;3.97;;
9912;SDS011;41380;52.548;13.344;2022-08-07T01:17:09;3.72;;;3.28;;
9912;SDS011;41380;52.548;13.344;2022-08-07T01:19:37;4.03;;;3.45;;
9912;SDS011;41380;52.548;13.344;2022-08-07T01:22:05;3.88;;;3.25;;
9912;SDS011;41380;52.548;13.344;2022-08-07T01:24:32;3.78;;;3.47;;
9912;SDS011;41380;52.548;13.344;2022-08-07T01:27:00;3.45;;;3.15;;
9912;SDS011;41380;52.548;13.344;2022-08-07T01:29:28;3.45;;;3.00;;
9912;SDS011;41380;52.548;13.344;2022-08-07T01:31:58;5.50;;;3.40;;
9912;SDS011;41380;52.548;13.344;2022-08-07T01:34:25;6.82;;;3.20;;
9912;SDS011;41380;52.548;13.344;2022-08-07T01:36:56;3.88;;;3.38;;
9912;SDS011;41380;52.548;13.344;2022-08-07T01:39:25;5.45;;;3.65;;
9912;SDS011;41380;52.548;13.344;2022-08-07T01:41:52;4.60;;;3.58;;
9912;SDS011;41380;52.548;13.344;2022-08-07T01:44:20;5.70;;;3.05;;
9912;SDS011;41380;52.548;13.344;2022-08-07T01:46:47;3.67;;;3.38;;
9912;SDS011;41380;52.548;13.344;2022-08-07T01:49:14;4.05;;;3.03;;
9912;SDS011;41380;52.548;13.344;2022-08-07T01:51:41;4.85;;;3.20;;
9912;SDS011;41380;52.548;13.344;2022-08-07T01:54:10;3.78;;;3.38;;
9912;SDS011;41380;52.548;13.344;2022-08-07T01:56:42;2.72;;;2.47;;
9912;SDS011;41380;52.548;13.344;2022-08-07T01:59:17;5.55;;;3.40;;
9912;SDS011;41380;52.548;13.344;2022-08-07T02:01:50;3.10;;;2.80;;
9912;SDS011;41380;52.548;13.344;2022-08-07T02:04:29;4.32;;;3.38;;
9912;SDS011;41380;52.548;13.344;2022-08-07T02:07:03;4.47;;;3.28;;
9912;SDS011;41380;52.548;13.344;2022-08-07T02:09:31;3.42;;;3.13;;
9912;SDS011;41380;52.548;13.344;2022-08-07T02:12:00;4.85;;;3.20;;
9912;SDS011;41380;52.548;13.344;2022-08-07T02:14:41;3.40;;;3.05;;
9912;SDS011;41380;52.548;13.344;2022-08-07T02:17:12;3.97;;;3.20;;
9912;SDS011;41380;52.548;13.344;2022-08-07T02:19:40;3.50;;;2.92;;
9912;SDS011;41380;52.548;13.344;2022-08-07T02:22:09;3.10;;;2.78;;
9912;SDS011;41380;52.548;13.344;2022-08-07T02:24:38;4.95;;;2.83;;
9912;SDS011;41380;52.548;13.344;2022-08-07T02:27:08;4.75;;;3.15;;
9912;SDS011;41380;52.548;13.344;2022-08-07T02:29:37;5.28;;;2.92;;
9912;SDS011;41380;52.548;13.344;2022-08-07T02:32:06;3.50;;;2.72;;
9912;SDS011;41380;52.548;13.344;2022-08-07T02:34:34;3.03;;;2.70;;
9912;SDS011;41380;52.548;13.344;2022-08-07T02:37:03;2.97;;;2.70;;
9912;SDS011;41380;52.548;13.344;2022-08-07T02:39:33;3.20;;;2.90;;
9912;SDS011;41380;52.548;13.344;2022-08-07T02:42:01;3.17;;;2.83;;
9912;SDS011;41380;52.548;13.344;2022-08-07T02:44:31;3.57;;;3.00;;
9912;SDS011;41380;52.548;13.344;2022-08-07T02:46:58;3.55;;;2.70;;
9912;SDS011;41380;52.548;13.344;2022-08-07T02:49:27;3.67;;;2.63;;
9912;SDS011;41380;52.548;13.344;2022-08-07T02:51:54;3.77;;;2.80;;
9912;SDS011;41380;52.548;13.344;2022-08-07T02:54:23;4.93;;;2.78;;
9912;SDS011;41380;52.548;13.344;2022-08-07T02:56:52;3.13;;;2.83;;
9912;SDS011;41380;52.548;13.344;2022-08-07T02:59:22;4.10;;;2.95;;
9912;SDS011;41380;52.548;13.344;2022-08-07T03:01:53;5.07;;;2.90;;
9912;SDS011;41380;52.548;13.344;2022-08-07T03:04:20;3.83;;;2.83;;
9912;SDS011;41380;52.548;13.344;2022-08-07T03:06:49;3.17;;;2.88;;
9912;SDS011;41380;52.548;13.344;2022-08-07T03:09:17;3.25;;;2.95;;
9912;SDS011;41380;52.548;13.344;2022-08-07T03:11:45;5.23;;;3.10;;
9912;SDS011;41380;52.548;13.344;2022-08-07T03:14:13;3.22;;;2.95;;
9912;SDS011;41380;52.548;13.344;2022-08-07T03:16:40;3.63;;;3.20;;
9912;SDS011;41380;52.548;13.344;2022-08-07T03:19:09;3.58;;;3.08;;
9912;SDS011;41380;52.548;13.344;2022-08-07T03:21:36;5.03;;;3.40;;
9912;SDS011;41380;52.548;13.344;2022-08-07T03:24:03;4.18;;;3.08;;
9912;SDS011;41380;52.548;13.344;2022-08-07T03:26:32;4.55;;;3.10;;
9912;SDS011;41380;52.548;13.344;2022-08-07T03:29:00;4.93;;;3.10;;
9912;SDS011;41380;52.548;13.344;2022-08-07T03:31:28;3.45;;;3.15;;
9912;SDS011;41380;52.548;13.344;2022-08-07T03:33:57;3.65;;;3.35;;
9912;SDS011;41380;52.548;13.344;2022-08-07T03:36:28;3.80;;;2.92;;
9912;SDS011;41380;52.548;13.344;2022-08-07T03:38:58;3.85;;;2.92;;
9912;SDS011;41380;52.548;13.344;2022-08-07T03:41:28;3.70;;;3.10;;
9912;SDS011;41380;52.548;13.344;2022-08-07T03:43:57;3.83;;;3.10;;
9912;SDS011;41380;52.548;13.344;2022-08-07T03:46:24;3.72;;;3.35;;
9912;SDS011;41380;52.548;13.344;2022-08-07T03:48:52;4.30;;;3.28;;
9912;SDS011;41380;52.548;13.344;2022-08-07T03:51:20;4.00;;;3.43;;
9912;SDS011;41380;52.548;13.344;2022-08-07T03:53:48;3.90;;;3.00;;
9912;SDS011;41380;52.548;13.344;2022-08-07T03:56:17;5.87;;;3.83;;
9912;SDS011;41380;52.548;13.344;2022-08-07T03:58:47;3.42;;;3.13;;
9912;SDS011;41380;52.548;13.344;2022-08-07T04:01:16;3.67;;;3.13;;
9912;SDS011;41380;52.548;13.344;2022-08-07T04:03:44;4.30;;;3.53;;
9912;SDS011;41380;52.548;13.344;2022-08-07T04:06:12;3.70;;;3.40;;
9912;SDS011;41380;52.548;13.344;2022-08-07T04:08:39;4.40;;;3.20;;
9912;SDS011;41380;52.548;13.344;2022-08-07T04:11:08;4.33;;;3.40;;
9912;SDS011;41380;52.548;13.344;2022-08-07T04:13:36;4.45;;;3.58;;
9912;SDS011;41380;52.548;13.344;2022-08-07T04:16:04;3.55;;;3.25;;
9912;SDS011;41380;52.548;13.344;2022-08-07T04:18:31;8.07;;;3.80;;
9912;SDS011;41380;52.548;13.344;2022-08-07T04:20:58;3.53;;;3.22;;
9912;SDS011;41380;52.548;13.344;2022-08-07T04:23:26;5.27;;;3.10;;
9912;SDS011;41380;52.548;13.344;2022-08-07T04:25:53;3.85;;;3.22;;
9912;SDS011;41380;52.548;13.344;2022-08-07T04:28:22;4.72;;;3.22;;
9912;SDS011;41380;52.548;13.344;2022-08-07T04:30:49;4.57;;;3.70;;
9912;SDS011;41380;52.548;13.344;2022-08-07T04:33:16;4.82;;;3.72;;
9912;SDS011;41380;52.548;13.344;2022-08-07T04:35:44;6.15;;;3.83;;
9912;SDS011;41380;52.548;13.344;2022-08-07T04:38:11;4.03;;;3.55;;
9912;SDS011;41380;52.548;13.344;2022-08-07T04:40:40;7.97;;;3.75;;
9912;SDS011;41380;52.548;13.344;2022-08-07T04:43:08;3.85;;;3.30;;
9912;SDS011;41380;52.548;13.344;2022-08-07T04:45:41;6.35;;;3.30;;
9912;SDS011;41380;52.548;13.344;2022-08-07T04:48:18;5.43;;;3.83;;
9912;SDS011;41380;52.548;13.344;2022-08-07T04:50:55;7.32;;;3.83;;
9912;SDS011;41380;52.548;13.344;2022-08-07T04:53:30;3.85;;;3.45;;
9912;SDS011;41380;52.548;13.344;2022-08-07T04:56:04;5.63;;;3.30;;
9912;SDS011;41380;52.548;13.344;2022-08-07T04:58:40;4.15;;;3.22;;
9912;SDS011;41380;52.548;13.344;2022-08-07T05:01:15;3.97;;;3.58;;
9912;SDS011;41380;52.548;13.344;2022-08-07T05:03:46;5.55;;;3.42;;
9912;SDS011;41380;52.548;13.344;2022-08-07T05:06:21;5.05;;;3.75;;
9912;SDS011;41380;52.548;13.344;2022-08-07T05:08:54;5.30;;;3.80;;
9912;SDS011;41380;52.548;13.344;2022-08-07T05:11:26;4.03;;;3.60;;
9912;SDS011;41380;52.548;13.344;2022-08-07T05:13:58;4.63;;;3.58;;
9912;SDS011;41380;52.548;13.344;2022-08-07T05:16:32;5.72;;;3.80;;
9912;SDS011;41380;52.548;13.344;2022-08-07T05:19:09;3.78;;;3.45;;
9912;SDS011;41380;52.548;13.344;2022-08-07T05:21:42;5.00;;;3.70;;
9912;SDS011;41380;52.548;13.344;2022-08-07T05:24:24;5.28;;;3.42;;
9912;SDS011;41380;52.548;13.344;2022-08-07T05:26:56;3.42;;;3.13;;
9912;SDS011;41380;52.548;13.344;2022-08-07T05:29:24;3.70;;;3.40;;
9912;SDS011;41380;52.548;13.344;2022-08-07T05:31:54;4.50;;;3.50;;
9912;SDS011;41380;52.548;13.344;2022-08-07T05:34:23;3.67;;;3.30;;
9912;SDS011;41380;52.548;13.344;2022-08-07T05:36:51;4.55;;;3.50;;
9912;SDS011;41380;52.548;13.344;2022-08-07T05:39:21;5.47;;;3.42;;
9912;SDS011;41380;52.548;13.344;2022-08-07T05:41:48;5.93;;;3.67;;
9912;SDS011;41380;52.548;13.344;2022-08-07T05:44:16;5.05;;;3.20;;
9912;SDS011;41380;52.548;13.344;2022-08-07T05:46:45;4.20;;;3.13;;
9912;SDS011;41380;52.548;13.344;2022-08-07T05:49:14;4.22;;;3.60;;
9912;SDS011;41380;52.548;13.344;2022-08-07T05:51:42;4.68;;;3.80;;
9912;SDS011;41380;52.548;13.344;2022-08-07T05:54:11;4.10;;;3.67;;
9912;SDS011;41380;52.548;13.344;2022-08-07T05:56:38;5.40;;;3.63;;
9912;SDS011;41380;52.548;13.344;2022-08-07T05:59:07;5.88;;;4.10;;
9912;SDS011;41380;52.548;13.344;2022-08-07T06:01:39;3.45;;;2.85;;
9912;SDS011;41380;52.548;13.344;2022-08-07T06:04:07;3.90;;;3.30;;
9912;SDS011;41380;52.548;13.344;2022-08-07T06:06:36;4.50;;;2.95;;
9912;SDS011;41380;52.548;13.344;2022-08-07T06:09:04;4.03;;;2.92;;
9912;SDS011;41380;52.548;13.344;2022-08-07T06:11:31;3.15;;;2.75;;
9912;SDS011;41380;52.548;13.344;2022-08-07T06:13:58;3.55;;;3.08;;
9912;SDS011;41380;52.548;13.344;2022-08-07T06:16:26;5.72;;;2.70;;
9912;SDS011;41380;52.548;13.344;2022-08-07T06:18:58;3.10;;;2.60;;
9912;SDS011;41380;52.548;13.344;2022-08-07T06:21:26;2.63;;;2.42;;
9912;SDS011;41380;52.548;13.344;2022-08-07T06:23:55;3.50;;;2.53;;
9912;SDS011;41380;52.548;13.344;2022-08-07T06:26:22;1.95;;;1.85;;
9912;SDS011;41380;52.548;13.344;2022-08-07T06:28:50;3.40;;;2.25;;
9912;SDS011;41380;52.548;13.344;2022-08-07T06:31:21;3.35;;;2.20;;
9912;SDS011;41380;52.548;13.344;2022-08-07T06:33:48;3.92;;;2.40;;
9912;SDS011;41380;52.548;13.344;2022-08-07T06:36:15;2.58;;;2.05;;
9912;SDS011;41380;52.548;13.344;2022-08-07T06:38:42;2.65;;;2.28;;
9912;SDS011;41380;52.548;13.344;2022-08-07T06:41:14;3.53;;;3.22;;
9912;SDS011;41380;52.548;13.344;2022-08-07T06:43:45;2.33;;;2.13;;
9912;SDS011;41380;52.548;13.344;2022-08-07T06:46:13;2.53;;;2.33;;
9912;SDS011;41380;52.548;13.344;2022-08-07T06:48:41;4.75;;;2.50;;
9912;SDS011;41380;52.548;13.344;2022-08-07T06:51:09;2.90;;;2.53;;
9912;SDS011;41380;52.548;13.344;2022-08-07T06:53:39;3.30;;;2.20;;
9912;SDS011;41380;52.548;13.344;2022-08-07T06:56:07;4.43;;;3.50;;
9912;SDS011;41380;52.548;13.344;2022-08-07T06:58:36;4.07;;;3.60;;
9912;SDS011;41380;52.548;13.344;2022-08-07T07:01:06;3.60;;;2.55;;
9912;SDS011;41380;52.548;13.344;2022-08-07T07:03:36;3.00;;;2.03;;
9912;SDS011;41380;52.548;13.344;2022-08-07T07:06:05;2.80;;;2.00;;
9912;SDS011;41380;52.548;13.344;2022-08-07T07:08:34;3.90;;;2.58;;
9912;SDS011;41380;52.548;13.344;2022-08-07T07:11:02;2.60;;;2.25;;
9912;SDS011;41380;52.548;13.344;2022-08-07T07:13:31;2.60;;;2.40;;
9912;SDS011;41380;52.548;13.344;2022-08-07T07:16:05;4.45;;;2.38;;
9912;SDS011;41380;52.548;13.344;2022-08-07T07:18:38;3.97;;;2.20;;
9912;SDS011;41380;52.548;13.344;2022-08-07T07:21:09;3.90;;;2.30;;
9912;SDS011;41380;52.548;13.344;2022-08-07T07:23:40;3.67;;;2.20;;
9912;SDS011;41380;52.548;13.344;2022-08-07T07:26:08;4.00;;;2.28;;
9912;SDS011;41380;52.548;13.344;2022-08-07T07:28:40;2.67;;;2.45;;
9912;SDS011;41380;52.548;13.344;2022-08-07T07:31:13;2.35;;;1.90;;
9912;SDS011;41380;52.548;13.344;2022-08-07T07:33:44;3.53;;;2.30;;
9912;SDS011;41380;52.548;13.344;2022-08-07T07:36:13;4.65;;;2.30;;
9912;SDS011;41380;52.548;13.344;2022-08-07T07:38:40;3.70;;;2.20;;
9912;SDS011;41380;52.548;13.344;2022-08-07T07:41:10;2.42;;;2.03;;
9912;SDS011;41380;52.548;13.344;2022-08-07T07:43:38;2.67;;;1.80;;
9912;SDS011;41380;52.548;13.344;2022-08-07T07:46:07;3.03;;;1.92;;
9912;SDS011;41380;52.548;13.344;2022-08-07T07:48:37;2.17;;;1.70;;
9912;SDS011;41380;52.548;13.344;2022-08-07T07:51:06;1.75;;;1.50;;
9912;SDS011;41380;52.548;13.344;2022-08-07T07:53:36;2.97;;;2.17;;
9912;SDS011;41380;52.548;13.344;2022-08-07T07:56:04;4.95;;;2.00;;
9912;SDS011;41380;52.548;13.344;2022-08-07T07:58:34;2.45;;;2.25;;
9912;SDS011;41380;52.548;13.344;2022-08-07T08:01:02;5.38;;;2.30;;
9912;SDS011;41380;52.548;13.344;2022-08-07T08:03:31;3.15;;;1.95;;
9912;SDS011;41380;52.548;13.344;2022-08-07T08:06:02;2.90;;;2.13;;
9912;SDS011;41380;52.548;13.344;2022-08-07T08:08:30;3.45;;;2.10;;
9912;SDS011;41380;52.548;13.344;2022-08-07T08:10:59;2.40;;;2.20;;
9912;SDS011;41380;52.548;13.344;2022-08-07T08:13:26;3.10;;;2.38;;
9912;SDS011;41380;52.548;13.344;2022-08-07T08:15:55;5.03;;;2.30;;
9912;SDS011;41380;52.548;13.344;2022-08-07T08:18:26;4.75;;;2.45;;
9912;SDS011;41380;52.548;13.344;2022-08-07T08:20:54;2.25;;;2.05;;
9912;SDS011;41380;52.548;13.344;2022-08-07T08:23:24;4.72;;;2.25;;
9912;SDS011;41380;52.548;13.344;2022-08-07T08:26:11;2.17;;;1.98;;
9912;SDS011;41380;52.548;13.344;2022-08-07T08:28:57;3.45;;;2.00;;
9912;SDS011;41380;52.548;13.344;2022-08-07T08:31:28;2.28;;;1.90;;
9912;SDS011;41380;52.548;13.344;2022-08-07T08:33:57;2.97;;;1.80;;
9912;SDS011;41380;52.548;13.344;2022-08-07T08:36:28;3.67;;;2.30;;
9912;SDS011;41380;52.548;13.344;2022-08-07T08:38:58;2.83;;;2.30;;
9912;SDS011;41380;52.548;13.344;2022-08-07T08:41:30;3.47;;;2.03;;
9912;SDS011;41380;52.548;13.344;2022-08-07T08:44:08;2.75;;;2.25;;
9912;SDS011;41380;52.548;13.344;2022-08-07T08:46:44;2.00;;;1.90;;
9912;SDS011;41380;52.548;13.344;2022-08-07T08:49:18;3.17;;;1.98;;
9912;SDS011;41380;52.548;13.344;2022-08-07T08:51:51;3.65;;;1.90;;
9912;SDS011;41380;52.548;13.344;2022-08-07T08:54:28;3.22;;;1.98;;
9912;SDS011;41380;52.548;13.344;2022-08-07T08:56:59;3.60;;;2.22;;
9912;SDS011;41380;52.548;13.344;2022-08-07T08:59:30;2.40;;;2.20;;
9912;SDS011;41380;52.548;13.344;2022-08-07T09:02:08;4.72;;;2.33;;
9912;SDS011;41380;52.548;13.344;2022-08-07T09:04:43;2.45;;;1.92;;
9912;SDS011;41380;52.548;13.344;2022-08-07T09:07:21;3.50;;;2.10;;
9912;SDS011;41380;52.548;13.344;2022-08-07T09:09:59;2.92;;;2.15;;
9912;SDS011;41380;52.548;13.344;2022-08-07T09:12:36;2.60;;;2.30;;
9912;SDS011;41380;52.548;13.344;2022-08-07T09:15:15;3.45;;;2.78;;
9912;SDS011;41380;52.548;13.344;2022-08-07T09:18:01;2.60;;;2.28;;
9912;SDS011;41380;52.548;13.344;2022-08-07T09:20:41;3.08;;;2.08;;
9912;SDS011;41380;52.548;13.344;2022-08-07T09:23:21;2.20;;;1.77;;
9912;SDS011;41380;52.548;13.344;2022-08-07T09:26:00;2.33;;;1.88;;
9912;SDS011;41380;52.548;13.344;2022-08-07T09:28:40;2.92;;;1.88;;
9912;SDS011;41380;52.548;13.344;2022-08-07T09:31:12;2.92;;;1.85;;
9912;SDS011;41380;52.548;13.344;2022-08-07T09:33:48;2.60;;;2.03;;
9912;SDS011;41380;52.548;13.344;2022-08-07T09:36:26;2.35;;;1.90;;
9912;SDS011;41380;52.548;13.344;2022-08-07T09:38:57;3.60;;;1.85;;
9912;SDS011;41380;52.548;13.344;2022-08-07T09:41:33;3.45;;;2.08;;
9912;SDS011;41380;52.548;13.344;2022-08-07T09:44:05;2.30;;;2.00;;
9912;SDS011;41380;52.548;13.344;2022-08-07T09:46:41;2.05;;;1.80;;
9912;SDS011;41380;52.548;13.344;2022-08-07T09:49:25;1.90;;;1.73;;
9912;SDS011;41380;52.548;13.344;2022-08-07T09:52:05;2.97;;;1.90;;
9912;SDS011;41380;52.548;13.344;2022-08-07T09:54:43;2.30;;;1.52;;
9912;SDS011;41380;52.548;13.344;2022-08-07T10:00:28;2.17;;;1.90;;
9912;SDS011;41380;52.548;13.344;2022-08-07T10:03:19;2.05;;;1.83;;
9912;SDS011;41380;52.548;13.344;2022-08-07T10:06:23;2.15;;;1.83;;
9912;SDS011;41380;52.548;13.344;2022-08-07T10:09:03;3.78;;;2.30;;
9912;SDS011;41380;52.548;13.344;2022-08-07T10:12:00;3.10;;;2.03;;
9912;SDS011;41380;52.548;13.344;2022-08-07T10:14:40;1.50;;;1.40;;
9912;SDS011;41380;52.548;13.344;2022-08-07T10:17:33;4.28;;;2.20;;
9912;SDS011;41380;52.548;13.344;2022-08-07T10:20:15;2.35;;;2.15;;
9912;SDS011;41380;52.548;13.344;2022-08-07T10:23:02;2.00;;;1.65;;
9912;SDS011;41380;52.548;13.344;2022-08-07T10:25:45;1.80;;;1.70;;
9912;SDS011;41380;52.548;13.344;2022-08-07T10:28:29;2.65;;;1.88;;
9912;SDS011;41380;52.548;13.344;2022-08-07T10:31:26;2.55;;;1.85;;
9912;SDS011;41380;52.548;13.344;2022-08-07T10:34:12;2.58;;;1.73;;
9912;SDS011;41380;52.548;13.344;2022-08-07T10:36:53;3.58;;;1.98;;
9912;SDS011;41380;52.548;13.344;2022-08-07T10:39:28;2.85;;;2.00;;
9912;SDS011;41380;52.548;13.344;2022-08-07T10:42:06;4.05;;;1.95;;
9912;SDS011;41380;52.548;13.344;2022-08-07T10:44:51;2.67;;;2.08;;
9912;SDS011;41380;52.548;13.344;2022-08-07T10:47:28;2.00;;;1.90;;
9912;SDS011;41380;52.548;13.344;2022-08-07T10:50:09;2.95;;;2.10;;
9912;SDS011;41380;52.548;13.344;2022-08-07T10:52:43;3.00;;;2.10;;
9912;SDS011;41380;52.548;13.344;2022-08-07T10:55:16;3.38;;;1.73;;
9912;SDS011;41380;52.548;13.344;2022-08-07T10:57:47;3.25;;;2.30;;
9912;SDS011;41380;52.548;13.344;2022-08-07T11:00:23;2.35;;;2.15;;
9912;SDS011;41380;52.548;13.344;2022-08-07T11:02:57;3.90;;;2.33;;
9912;SDS011;41380;52.548;13.344;2022-08-07T11:05:35;2.65;;;2.00;;
9912;SDS011;41380;52.548;13.344;2022-08-07T11:08:11;2.25;;;2.05;;
9912;SDS011;41380;52.548;13.344;2022-08-07T11:10:46;3.17;;;2.28;;
9912;SDS011;41380;52.548;13.344;2022-08-07T11:13:18;2.80;;;2.40;;
9912;SDS011;41380;52.548;13.344;2022-08-07T11:15:51;4.55;;;3.20;;
9912;SDS011;41380;52.548;13.344;2022-08-07T11:18:24;2.45;;;2.05;;
9912;SDS011;41380;52.548;13.344;2022-08-07T11:21:03;1.90;;;1.80;;
9912;SDS011;41380;52.548;13.344;2022-08-07T11:23:38;2.65;;;1.77;;
9912;SDS011;41380;52.548;13.344;2022-08-07T11:26:13;3.33;;;2.55;;
9912;SDS011;41380;52.548;13.344;2022-08-07T11:28:48;1.92;;;1.75;;
9912;SDS011;41380;52.548;13.344;2022-08-07T11:31:20;2.70;;;1.95;;
9912;SDS011;41380;52.548;13.344;2022-08-07T11:33:53;2.55;;;1.67;;
9912;SDS011;41380;52.548;13.344;2022-08-07T11:36:32;4.10;;;1.90;;
9912;SDS011;41380;52.548;13.344;2022-08-07T11:39:08;3.95;;;2.45;;
9912;SDS011;41380;52.548;13.344;2022-08-07T11:41:43;3.85;;;2.72;;
9912;SDS011;41380;52.548;13.344;2022-08-07T11:44:17;4.28;;;1.88;;
9912;SDS011;41380;52.548;13.344;2022-08-07T11:46:55;3.28;;;1.92;;
9912;SDS011;41380;52.548;13.344;2022-08-07T11:49:35;5.28;;;4.50;;
9912;SDS011;41380;52.548;13.344;2022-08-07T11:52:26;2.03;;;1.70;;
9912;SDS011;41380;52.548;13.344;2022-08-07T11:55:13;2.45;;;1.70;;
9912;SDS011;41380;52.548;13.344;2022-08-07T11:57:50;2.90;;;1.70;;
9912;SDS011;41380;52.548;13.344;2022-08-07T12:00:24;1.73;;;1.55;;
9912;SDS011;41380;52.548;13.344;2022-08-07T12:03:01;2.28;;;1.70;;
9912;SDS011;41380;52.548;13.344;2022-08-07T12:05:54;3.03;;;1.90;;
9912;SDS011;41380;52.548;13.344;2022-08-07T12:08:36;2.00;;;1.55;;
9912;SDS011;41380;52.548;13.344;2022-08-07T12:11:08;4.80;;;1.90;;
9912;SDS011;41380;52.548;13.344;2022-08-07T12:13:41;4.00;;;2.20;;
9912;SDS011;41380;52.548;13.344;2022-08-07T12:16:12;1.80;;;1.70;;
9912;SDS011;41380;52.548;13.344;2022-08-07T12:18:45;2.03;;;1.80;;
9912;SDS011;41380;52.548;13.344;2022-08-07T12:21:23;2.28;;;1.70;;
9912;SDS011;41380;52.548;13.344;2022-08-07T12:23:58;2.78;;;1.60;;
9912;SDS011;41380;52.548;13.344;2022-08-07T12:26:32;2.25;;;1.60;;
9912;SDS011;41380;52.548;13.344;2022-08-07T12:29:06;2.75;;;1.40;;
9912;SDS011;41380;52.548;13.344;2022-08-07T12:31:40;2.30;;;1.83;;
9912;SDS011;41380;52.548;13.344;2022-08-07T12:34:11;1.80;;;1.70;;
9912;SDS011;41380;52.548;13.344;2022-08-07T12:36:38;4.18;;;2.67;;
9912;SDS011;41380;52.548;13.344;2022-08-07T12:39:10;1.90;;;1.70;;
9912;SDS011;41380;52.548;13.344;2022-08-07T12:41:38;2.67;;;2.10;;
9912;SDS011;41380;52.548;13.344;2022-08-07T12:44:08;4.00;;;1.90;;
9912;SDS011;41380;52.548;13.344;2022-08-07T12:46:42;3.20;;;2.13;;
9912;SDS011;41380;52.548;13.344;2022-08-07T12:49:20;2.00;;;1.80;;
9912;SDS011;41380;52.548;13.344;2022-08-07T12:52:00;3.65;;;1.70;;
9912;SDS011;41380;52.548;13.344;2022-08-07T12:54:33;2.03;;;1.70;;
9912;SDS011;41380;52.548;13.344;2022-08-07T12:57:06;2.30;;;1.63;;
9912;SDS011;41380;52.548;13.344;2022-08-07T12:59:34;1.77;;;1.63;;
9912;SDS011;41380;52.548;13.344;2022-08-07T13:02:06;2.08;;;1.90;;
9912;SDS011;41380;52.548;13.344;2022-08-07T13:04:53;1.80;;;1.70;;
9912;SDS011;41380;52.548;13.344;2022-08-07T13:07:41;1.65;;;1.55;;
9912;SDS011;41380;52.548;13.344;2022-08-07T13:10:31;2.45;;;1.60;;
9912;SDS011;41380;52.548;13.344;2022-08-07T13:13:12;2.05;;;1.77;;
9912;SDS011;41380;52.548;13.344;2022-08-07T13:15:54;3.83;;;1.70;;
9912;SDS011;41380;52.548;13.344;2022-08-07T13:18:28;2.33;;;2.13;;
9912;SDS011;41380;52.548;13.344;2022-08-07T13:21:04;1.92;;;1.75;;
9912;SDS011;41380;52.548;13.344;2022-08-07T13:23:42;4.30;;;2.13;;
9912;SDS011;41380;52.548;13.344;2022-08-07T13:26:18;3.53;;;2.30;;
9912;SDS011;41380;52.548;13.344;2022-08-07T13:28:54;1.83;;;1.55;;
9912;SDS011;41380;52.548;13.344;2022-08-07T13:31:25;5.55;;;2.15;;
9912;SDS011;41380;52.548;13.344;2022-08-07T13:33:58;2.63;;;2.03;;
9912;SDS011;41380;52.548;13.344;2022-08-07T13:36:33;3.92;;;2.30;;
9912;SDS011;41380;52.548;13.344;2022-08-07T13:39:14;2.72;;;2.17;;
9912;SDS011;41380;52.548;13.344;2022-08-07T13:41:55;3.83;;;2.33;;
9912;SDS011;41380;52.548;13.344;2022-08-07T13:44:24;2.25;;;2.00;;
9912;SDS011;41380;52.548;13.344;2022-08-07T13:46:57;2.08;;;1.80;;
9912;SDS011;41380;52.548;13.344;2022-08-07T13:49:27;3.08;;;2.20;;
9912;SDS011;41380;52.548;13.344;2022-08-07T13:52:01;2.33;;;1.67;;
9912;SDS011;41380;52.548;13.344;2022-08-07T13:54:30;2.60;;;1.85;;
9912;SDS011;41380;52.548;13.344;2022-08-07T13:57:02;3.55;;;2.13;;
9912;SDS011;41380;52.548;13.344;2022-08-07T13:59:38;1.95;;;1.75;;
9912;SDS011;41380;52.548;13.344;2022-08-07T14:02:11;2.35;;;1.95;;
9912;SDS011;41380;52.548;13.344;2022-08-07T14:04:45;4.05;;;2.10;;
9912;SDS011;41380;52.548;13.344;2022-08-07T14:07:15;2.13;;;1.83;;
9912;SDS011;41380;52.548;13.344;2022-08-07T14:09:46;3.15;;;1.83;;
9912;SDS011;41380;52.548;13.344;2022-08-07T14:12:21;2.63;;;1.90;;
9912;SDS011;41380;52.548;13.344;2022-08-07T14:14:53;2.10;;;1.80;;
9912;SDS011;41380;52.548;13.344;2022-08-07T14:17:25;3.13;;;2.10;;
9912;SDS011;41380;52.548;13.344;2022-08-07T14:19:54;1.80;;;1.60;;
9912;SDS011;41380;52.548;13.344;2022-08-07T14:22:25;1.75;;;1.65;;
9912;SDS011;41380;52.548;13.344;2022-08-07T14:24:56;2.63;;;1.92;;
9912;SDS011;41380;52.548;13.344;2022-08-07T14:27:31;2.70;;;1.85;;
9912;SDS011;41380;52.548;13.344;2022-08-07T14:30:03;4.25;;;3.60;;
9912;SDS011;41380;52.548;13.344;2022-08-07T14:32:36;2.65;;;2.30;;
9912;SDS011;41380;52.548;13.344;2022-08-07T14:35:09;2.13;;;1.90;;
9912;SDS011;41380;52.548;13.344;2022-08-07T14:37:41;2.03;;;1.80;;
9912;SDS011;41380;52.548;13.344;2022-08-07T14:40:14;2.05;;;1.40;;
9912;SDS011;41380;52.548;13.344;2022-08-07T14:42:44;2.60;;;2.08;;
9912;SDS011;41380;52.548;13.344;2022-08-07T14:45:17;2.72;;;1.60;;
9912;SDS011;41380;52.548;13.344;2022-08-07T14:47:45;1.90;;;1.50;;
9912;SDS011;41380;52.548;13.344;2022-08-07T14:50:14;5.55;;;2.80;;
9912;SDS011;41380;52.548;13.344;2022-08-07T14:52:44;2.10;;;1.90;;
9912;SDS011;41380;52.548;13.344;2022-08-07T14:55:13;3.95;;;2.28;;
9912;SDS011;41380;52.548;13.344;2022-08-07T14:57:40;3.90;;;2.70;;
9912;SDS011;41380;52.548;13.344;2022-08-07T15:00:13;3.42;;;1.60;;
9912;SDS011;41380;52.548;13.344;2022-08-07T15:02:43;2.03;;;1.83;;
9912;SDS011;41380;52.548;13.344;2022-08-07T15:05:13;2.55;;;2.03;;
9912;SDS011;41380;52.548;13.344;2022-08-07T15:07:43;2.42;;;1.75;;
9912;SDS011;41380;52.548;13.344;2022-08-07T15:10:17;4.10;;;2.22;;
9912;SDS011;41380;52.548;13.344;2022-08-07T15:12:49;2.42;;;2.22;;
9912;SDS011;41380;52.548;13.344;2022-08-07T15:15:22;1.95;;;1.83;;
9912;SDS011;41380;52.548;13.344;2022-08-07T15:17:56;3.15;;;2.05;;
9912;SDS011;41380;52.548;13.344;2022-08-07T15:20:27;1.92;;;1.70;;